Terminal Aerodrome Forecast
Issued by NWS

Home | Current Version | Previous Version | Text Only | Print | Product List | Glossary On
Versions: 1 2 3 4 5 6 7 8 9 10 11 12 13 14 15 16 17 18
000
FTUS44 KTSA 240300 AAA
TAFFYV
TAF AMD
KFYV 240358Z 2404/2424 17010KT P6SM SCT025 BKN050 OVC100
     FM240600 17007KT P6SM VCTS OVC025CB
      TEMPO 2407/2411 3SM -TSRA BKN008CB
     FM241100 17012KT 3SM -TSRA OVC012CB
      TEMPO 2411/2415 1SM TSRA BKN007CB
     FM241500 17013G20KT 3SM -TSRA OVC020CB=

USA.gov is the U.S. government's official web portal to all federal, state and local government web resources and services.